createdAt,value
2022-11-01T00:02:02.365Z,12.92
2022-11-01T00:04:30.608Z,12.90
2022-11-01T00:06:58.924Z,12.89
2022-11-01T00:09:27.209Z,12.88
2022-11-01T00:11:56.876Z,12.83
2022-11-01T00:14:25.424Z,12.83
2022-11-01T00:16:53.590Z,12.83
2022-11-01T00:19:21.699Z,12.80
2022-11-01T00:21:50.605Z,12.79
2022-11-01T00:24:18.806Z,12.79
2022-11-01T00:26:50.138Z,12.79
2022-11-01T00:29:19.721Z,12.76
2022-11-01T00:31:47.780Z,12.75
2022-11-01T00:34:16.999Z,12.73
2022-11-01T00:36:45.475Z,12.71
2022-11-01T00:39:14.992Z,12.66
2022-11-01T00:41:43.196Z,12.65
2022-11-01T00:44:11.445Z,12.65
2022-11-01T00:46:41.064Z,12.66
2022-11-01T00:49:09.340Z,12.67
2022-11-01T00:51:37.384Z,12.67
2022-11-01T00:54:05.863Z,12.67
2022-11-01T00:56:33.989Z,12.67
2022-11-01T00:59:02.215Z,12.63
2022-11-01T01:01:32.411Z,12.61
2022-11-01T01:04:02.191Z,12.59
2022-11-01T01:06:30.367Z,12.57
2022-11-01T01:09:00.629Z,12.53
2022-11-01T01:11:29.247Z,12.47
2022-11-01T01:13:57.560Z,12.44
2022-11-01T01:16:25.747Z,12.38
2022-11-01T01:18:53.966Z,12.32
2022-11-01T01:21:23.668Z,12.31
2022-11-01T01:23:54.963Z,12.28
2022-11-01T01:26:23.211Z,12.25
2022-11-01T01:28:54.795Z,12.21
2022-11-01T01:31:22.669Z,12.14
2022-11-01T01:33:50.905Z,12.09
2022-11-01T01:36:19.126Z,12.04
2022-11-01T01:38:48.614Z,12.01
2022-11-01T01:41:34.079Z,11.94
2022-11-01T01:44:03.486Z,11.92
2022-11-01T01:46:31.632Z,11.90
2022-11-01T01:49:01.196Z,11.83
2022-11-01T01:51:30.952Z,11.80
2022-11-01T01:54:00.880Z,11.76
2022-11-01T01:56:34.524Z,11.74
2022-11-01T01:59:06.479Z,11.71
2022-11-01T02:01:36.614Z,11.71
2022-11-01T02:04:06.113Z,11.67
2022-11-01T02:06:36.019Z,11.67
2022-11-01T02:09:08.466Z,11.65
2022-11-01T02:11:36.790Z,11.61
2022-11-01T02:14:05.329Z,11.61
2022-11-01T02:16:48.319Z,11.61
2022-11-01T02:20:07.136Z,11.59
2022-11-01T02:22:55.380Z,11.57
2022-11-01T02:25:49.648Z,11.53
2022-11-01T02:28:38.637Z,11.51
2022-11-01T02:31:29.801Z,11.50
2022-11-01T02:34:02.023Z,11.50
2022-11-01T02:36:35.370Z,11.50
2022-11-01T02:39:10.395Z,11.49
2022-11-01T02:41:43.705Z,11.46
2022-11-01T02:44:17.176Z,11.43
2022-11-01T02:47:02.261Z,11.39
2022-11-01T02:49:35.393Z,11.41
2022-11-01T02:52:05.352Z,11.39
2022-11-01T02:54:35.328Z,11.37
2022-11-01T02:57:08.298Z,11.38
2022-11-01T02:59:44.919Z,11.37
2022-11-01T03:02:19.646Z,11.39
2022-11-01T03:04:49.790Z,11.37
2022-11-01T03:07:18.737Z,11.40
2022-11-01T03:09:47.158Z,11.42
2022-11-01T03:12:25.755Z,11.48
2022-11-01T03:15:02.305Z,11.54
2022-11-01T03:17:41.407Z,11.58
2022-11-01T03:20:21.049Z,11.61
2022-11-01T03:22:53.931Z,11.66
2022-11-01T03:25:40.174Z,11.68
2022-11-01T03:28:13.129Z,11.72
2022-11-01T03:30:44.672Z,11.77
2022-11-01T03:33:14.992Z,11.81
2022-11-01T03:35:48.826Z,11.83
2022-11-01T03:38:21.195Z,11.85
2022-11-01T03:40:54.275Z,11.87
2022-11-01T03:43:25.532Z,11.91
2022-11-01T03:45:53.926Z,11.91
2022-11-01T03:48:22.084Z,11.96
2022-11-01T03:50:52.595Z,11.95
2022-11-01T03:53:20.923Z,11.97
2022-11-01T03:55:49.413Z,11.99
2022-11-01T03:58:17.871Z,11.97
2022-11-01T04:00:47.543Z,11.98
2022-11-01T04:03:15.629Z,11.97
2022-11-01T04:05:44.293Z,11.96
2022-11-01T04:08:14.008Z,11.95
2022-11-01T04:10:44.754Z,11.94
2022-11-01T04:13:13.781Z,11.94
2022-11-01T04:16:14.221Z,11.92
2022-11-01T04:18:59.447Z,11.90
2022-11-01T04:21:28.048Z,11.89
2022-11-01T04:23:57.565Z,11.89
2022-11-01T04:26:25.773Z,11.89
2022-11-01T04:28:59.654Z,11.86
2022-11-01T04:31:29.651Z,11.84
2022-11-01T04:33:58.228Z,11.82
2022-11-01T04:36:27.464Z,11.80
2022-11-01T04:38:58.473Z,11.78
2022-11-01T04:41:28.443Z,11.78
2022-11-01T04:43:59.174Z,11.77
2022-11-01T04:46:33.242Z,11.75
2022-11-01T04:49:01.668Z,11.75
2022-11-01T04:51:29.907Z,11.72
2022-11-01T04:54:01.357Z,11.72
2022-11-01T04:56:29.582Z,11.66
2022-11-01T04:58:58.401Z,11.68
2022-11-01T05:01:26.714Z,11.68
2022-11-01T05:03:55.796Z,11.65
2022-11-01T05:06:23.903Z,11.63
2022-11-01T05:08:52.103Z,11.61
2022-11-01T05:11:25.872Z,11.58
2022-11-01T05:13:54.347Z,11.56
2022-11-01T05:16:22.463Z,11.54
2022-11-01T05:18:50.804Z,11.54
2022-11-01T05:21:19.166Z,11.47
2022-11-01T05:23:49.020Z,11.52
2022-11-01T05:26:17.280Z,11.53
2022-11-01T05:28:46.837Z,11.52
2022-11-01T05:31:15.041Z,11.48
2022-11-01T05:33:43.093Z,11.45
2022-11-01T05:36:11.359Z,11.43
2022-11-01T05:38:39.651Z,11.45
2022-11-01T05:41:07.970Z,11.41
2022-11-01T05:43:36.183Z,11.38
2022-11-01T05:46:07.013Z,11.34
2022-11-01T05:48:35.861Z,11.30
2022-11-01T05:51:04.031Z,11.29
2022-11-01T05:53:32.226Z,11.26
2022-11-01T05:56:01.012Z,11.26
2022-11-01T05:58:30.785Z,11.24
2022-11-01T06:00:59.939Z,11.20
2022-11-01T06:03:29.748Z,11.21
2022-11-01T06:05:58.483Z,11.20
2022-11-01T06:08:27.238Z,11.19
2022-11-01T06:11:02.732Z,11.17
2022-11-01T06:13:30.817Z,11.14
2022-11-01T06:16:00.324Z,11.18
2022-11-01T06:18:30.066Z,11.17
2022-11-01T06:20:59.452Z,11.18
2022-11-01T06:23:27.785Z,11.15
2022-11-01T06:26:01.435Z,11.14
2022-11-01T06:28:29.865Z,11.14
2022-11-01T06:31:01.986Z,11.13
2022-11-01T06:33:31.798Z,11.13
2022-11-01T06:35:59.958Z,11.13
2022-11-01T06:38:28.126Z,11.12
2022-11-01T06:40:56.374Z,11.09
2022-11-01T06:43:24.674Z,11.07
2022-11-01T06:45:52.761Z,11.08
2022-11-01T06:48:20.957Z,11.08
2022-11-01T06:50:51.528Z,11.06
2022-11-01T06:53:19.742Z,11.06
2022-11-01T06:55:47.910Z,11.04
2022-11-01T06:58:16.257Z,11.06
2022-11-01T07:00:44.850Z,11.04
2022-11-01T07:03:15.049Z,11.00
2022-11-01T07:05:43.654Z,10.97
2022-11-01T07:08:14.424Z,10.96
2022-11-01T07:10:44.691Z,10.96
2022-11-01T07:13:14.388Z,10.98
2022-11-01T07:15:42.553Z,10.96
2022-11-01T07:18:10.906Z,10.95
2022-11-01T07:20:42.580Z,10.94
2022-11-01T07:23:14.807Z,10.93
2022-11-01T07:25:43.970Z,10.89
2022-11-01T07:28:12.475Z,10.88
2022-11-01T07:30:40.804Z,10.89
2022-11-01T07:33:08.970Z,10.87
2022-11-01T07:35:37.466Z,10.83
2022-11-01T07:38:09.696Z,10.81
2022-11-01T07:40:42.650Z,10.81
2022-11-01T07:43:10.802Z,10.83
2022-11-01T07:45:39.180Z,10.85
2022-11-01T07:48:10.434Z,10.86
2022-11-01T07:50:40.052Z,10.85
2022-11-01T07:53:10.409Z,10.86
2022-11-01T07:55:39.489Z,10.86
2022-11-01T07:58:09.972Z,10.86
2022-11-01T08:00:38.709Z,10.87
2022-11-01T08:03:08.859Z,10.91
2022-11-01T08:05:37.665Z,10.94
2022-11-01T08:08:07.115Z,10.97
2022-11-01T08:10:36.680Z,11.04
2022-11-01T08:13:05.960Z,11.06
2022-11-01T08:15:36.059Z,11.11
2022-11-01T08:18:05.204Z,11.12
2022-11-01T08:20:36.364Z,11.17
2022-11-01T08:23:05.312Z,11.19
2022-11-01T08:25:34.948Z,11.21
2022-11-01T08:28:04.036Z,11.25
2022-11-01T08:30:32.735Z,11.27
2022-11-01T08:33:04.008Z,11.31
2022-11-01T08:35:32.509Z,11.31
2022-11-01T08:38:01.338Z,11.37
2022-11-01T08:40:30.088Z,11.38
2022-11-01T08:42:58.732Z,11.42
2022-11-01T08:45:27.803Z,11.45
2022-11-01T08:48:00.326Z,11.46
2022-11-01T08:50:30.183Z,11.45
2022-11-01T08:52:58.497Z,11.44
2022-11-01T08:55:26.807Z,11.48
2022-11-01T08:57:55.063Z,11.50
2022-11-01T09:00:23.461Z,11.52
2022-11-01T09:02:51.773Z,11.55
2022-11-01T09:05:19.995Z,11.58
2022-11-01T09:07:49.954Z,11.58
2022-11-01T09:10:18.210Z,11.59
2022-11-01T09:12:46.342Z,11.60
2022-11-01T09:15:14.555Z,11.61
2022-11-01T09:17:42.717Z,11.62
2022-11-01T09:20:11.268Z,11.65
2022-11-01T09:22:39.504Z,11.67
2022-11-01T09:25:09.962Z,11.66
2022-11-01T09:27:38.143Z,11.66
2022-11-01T09:30:07.296Z,11.66
2022-11-01T09:32:35.545Z,11.65
2022-11-01T09:35:04.117Z,11.65
2022-11-01T09:37:32.709Z,11.67
2022-11-01T09:40:00.771Z,11.71
2022-11-01T09:42:36.142Z,11.74
2022-11-01T09:45:09.647Z,11.77
2022-11-01T09:47:38.744Z,11.79
2022-11-01T09:50:18.651Z,11.80
2022-11-01T09:52:46.850Z,11.86
2022-11-01T09:55:17.303Z,11.88
2022-11-01T09:57:55.177Z,11.88
2022-11-01T10:00:23.610Z,11.91
2022-11-01T10:03:25.358Z,11.92
2022-11-01T10:06:03.615Z,11.99
2022-11-01T10:08:42.699Z,12.01
2022-11-01T10:11:39.383Z,12.06
2022-11-01T10:14:20.265Z,12.06
2022-11-01T10:16:58.059Z,12.07
2022-11-01T10:19:30.668Z,12.10
2022-11-01T10:22:03.304Z,12.13
2022-11-01T10:24:37.683Z,12.15
2022-11-01T10:27:12.236Z,12.18
2022-11-01T10:29:48.604Z,12.21
2022-11-01T10:32:26.207Z,12.22
2022-11-01T10:34:56.843Z,12.23
2022-11-01T10:37:28.550Z,12.23
2022-11-01T10:40:02.794Z,12.27
2022-11-01T10:42:34.841Z,12.27
2022-11-01T10:45:09.017Z,12.32
2022-11-01T10:47:37.361Z,12.35
2022-11-01T10:50:14.440Z,12.37
2022-11-01T10:52:49.264Z,12.37
2022-11-01T10:55:22.497Z,12.41
2022-11-01T10:57:56.610Z,12.41
2022-11-01T11:00:26.248Z,12.42
2022-11-01T11:02:57.422Z,12.45
2022-11-01T11:05:27.605Z,12.42
2022-11-01T11:07:57.560Z,12.40
2022-11-01T11:10:29.297Z,12.37
2022-11-01T11:13:01.694Z,12.39
2022-11-01T11:15:43.374Z,12.41
2022-11-01T11:18:22.926Z,12.45
2022-11-01T11:21:00.183Z,12.46
2022-11-01T11:23:30.630Z,12.52
2022-11-01T11:26:03.589Z,12.58
2022-11-01T11:28:35.523Z,12.63
2022-11-01T11:31:15.567Z,12.72
2022-11-01T11:33:50.466Z,12.80
2022-11-01T11:36:20.296Z,12.91
2022-11-01T11:38:50.088Z,13.03
2022-11-01T11:41:29.601Z,13.11
2022-11-01T11:43:57.797Z,13.19
2022-11-01T11:46:27.721Z,13.28
2022-11-01T11:48:59.301Z,13.38
2022-11-01T11:51:28.523Z,13.46
2022-11-01T11:54:17.361Z,13.55
2022-11-01T11:56:46.339Z,13.64
2022-11-01T11:59:23.152Z,13.79
2022-11-01T12:01:57.243Z,13.85
2022-11-01T12:04:25.493Z,13.90
2022-11-01T12:06:54.134Z,14.03
2022-11-01T12:09:42.853Z,14.15
2022-11-01T12:12:18.473Z,14.28
2022-11-01T12:14:46.870Z,14.40
2022-11-01T12:17:27.828Z,14.43
2022-11-01T12:20:17.748Z,14.48
2022-11-01T12:22:51.831Z,14.55
2022-11-01T12:25:23.394Z,14.60
2022-11-01T12:27:55.058Z,14.61
2022-11-01T12:30:26.001Z,14.62
2022-11-01T12:32:58.936Z,14.64
2022-11-01T12:35:32.792Z,14.66
2022-11-01T12:38:18.851Z,14.63
2022-11-01T12:40:50.128Z,14.68
2022-11-01T12:43:23.648Z,14.71
2022-11-01T12:45:57.163Z,14.74
2022-11-01T12:48:31.646Z,14.72
2022-11-01T12:51:05.356Z,14.72
2022-11-01T12:53:40.739Z,14.73
2022-11-01T12:56:09.160Z,14.69
2022-11-01T12:58:37.546Z,14.62
2022-11-01T13:01:21.203Z,14.55
2022-11-01T13:04:01.607Z,14.53
2022-11-01T13:06:47.180Z,14.56
2022-11-01T13:09:25.531Z,14.59
2022-11-01T13:12:01.590Z,14.56
2022-11-01T13:14:43.498Z,14.48
2022-11-01T13:17:20.419Z,14.41
2022-11-01T13:20:00.646Z,14.32
2022-11-01T13:22:39.802Z,14.26
2022-11-01T13:25:18.162Z,14.16
2022-11-01T13:27:53.472Z,14.03
2022-11-01T13:30:22.311Z,13.98
2022-11-01T13:32:59.379Z,13.92
2022-11-01T13:35:49.331Z,13.79
2022-11-01T13:38:26.081Z,13.76
2022-11-01T13:41:04.662Z,13.76
2022-11-01T13:43:39.903Z,13.70
2022-11-01T13:46:34.985Z,13.64
2022-11-01T13:49:43.387Z,13.61
2022-11-01T13:52:19.882Z,13.59
2022-11-01T13:54:55.669Z,13.57
2022-11-01T13:57:27.251Z,13.59
2022-11-01T13:59:57.198Z,13.57
2022-11-01T14:02:48.975Z,13.55
2022-11-01T14:05:17.468Z,13.55
2022-11-01T14:08:29.887Z,13.50
2022-11-01T14:10:59.584Z,13.45
2022-11-01T14:13:33.735Z,13.41
2022-11-01T14:16:24.122Z,13.39
2022-11-01T14:19:22.155Z,13.33
2022-11-01T14:21:54.221Z,13.32
2022-11-01T14:24:34.899Z,13.31
2022-11-01T14:27:22.820Z,13.24
2022-11-01T14:29:54.956Z,13.26
2022-11-01T14:32:26.308Z,13.25
2022-11-01T14:35:03.114Z,13.22
2022-11-01T14:37:38.725Z,13.20
2022-11-01T14:40:30.592Z,13.16
2022-11-01T14:43:05.528Z,13.17
2022-11-01T15:18:17.470Z,12.98
2022-11-01T15:20:49.842Z,12.94
2022-11-01T15:23:21.231Z,12.91
2022-11-01T15:25:53.107Z,12.89
2022-11-01T15:28:25.156Z,12.87
2022-11-01T15:30:58.840Z,12.85
2022-11-01T15:33:31.026Z,12.83
2022-11-01T15:36:01.119Z,12.81
2022-11-01T15:38:30.441Z,12.78
2022-11-01T15:40:58.611Z,12.76
2022-11-01T15:43:28.163Z,12.71
2022-11-01T15:45:59.776Z,12.67
2022-11-01T15:48:31.033Z,12.61
2022-11-01T15:51:03.307Z,12.58
2022-11-01T15:53:35.062Z,12.59
2022-11-01T15:56:07.655Z,12.61
2022-11-01T15:58:39.559Z,12.62
2022-11-01T16:01:14.419Z,12.64
2022-11-01T16:03:49.733Z,12.66
2022-11-01T16:06:23.079Z,12.67
2022-11-01T16:08:55.040Z,12.69
2022-11-01T16:11:27.533Z,12.66
2022-11-01T16:14:00.157Z,12.62
2022-11-01T16:16:28.514Z,12.62
2022-11-01T16:18:58.228Z,12.59
2022-11-01T16:21:30.933Z,12.54
2022-11-01T16:24:06.838Z,12.52
2022-11-01T16:26:56.023Z,12.46
2022-11-01T16:29:42.653Z,12.44
2022-11-01T16:32:20.381Z,12.43
2022-11-01T16:34:50.156Z,12.41
2022-11-01T16:37:21.360Z,12.41
2022-11-01T16:39:49.469Z,12.38
2022-11-01T16:42:18.533Z,12.33
2022-11-01T16:44:47.442Z,12.31
2022-11-01T16:47:17.591Z,12.28
2022-11-01T16:49:51.939Z,12.24
2022-11-01T16:52:20.582Z,12.22
2022-11-01T16:54:51.122Z,12.22
2022-11-01T16:57:25.995Z,12.19
2022-11-01T16:59:55.791Z,12.18
2022-11-01T17:02:27.132Z,12.16
2022-11-01T17:05:04.441Z,12.16
2022-11-01T17:07:32.523Z,12.14
2022-11-01T17:10:00.790Z,12.11
2022-11-01T17:12:29.018Z,12.09
2022-11-01T17:14:57.220Z,12.09
2022-11-01T17:17:27.596Z,12.07
2022-11-01T17:20:04.258Z,12.02
2022-11-01T17:22:36.298Z,11.97
2022-11-01T17:25:06.218Z,11.97
2022-11-01T17:27:34.463Z,11.96
2022-11-01T17:30:02.698Z,11.96
2022-11-01T17:32:31.060Z,11.96
2022-11-01T17:35:00.639Z,11.93
2022-11-01T17:37:32.416Z,11.91
2022-11-01T17:40:02.054Z,11.90
2022-11-01T17:42:30.410Z,11.90
2022-11-01T17:44:58.545Z,11.92
2022-11-01T17:47:27.013Z,11.90
2022-11-01T17:49:55.124Z,11.89
2022-11-01T17:52:24.647Z,11.87
2022-11-01T17:54:52.737Z,11.87
2022-11-01T17:57:20.836Z,11.86
2022-11-01T17:59:49.026Z,11.84
2022-11-01T18:02:17.336Z,11.82
2022-11-01T18:04:45.463Z,11.81
2022-11-01T18:07:13.982Z,11.78
2022-11-01T18:09:43.605Z,11.77
2022-11-01T18:12:18.191Z,11.76
2022-11-01T18:14:55.941Z,11.69
2022-11-01T18:17:39.045Z,11.66
2022-11-01T18:20:16.592Z,11.66
2022-11-01T18:22:52.584Z,11.64
2022-11-01T18:25:32.667Z,11.60
2022-11-01T18:28:02.538Z,11.55
2022-11-01T18:30:31.549Z,11.51
2022-11-01T18:33:05.328Z,11.45
2022-11-01T18:35:39.549Z,11.43
2022-11-01T18:38:17.967Z,11.40
2022-11-01T18:40:59.343Z,11.36
2022-11-01T18:43:29.943Z,11.37
2022-11-01T18:46:23.265Z,11.35
2022-11-01T18:48:46.416Z,11.33
2022-11-01T18:51:20.891Z,11.28
2022-11-01T18:53:54.342Z,11.23
2022-11-01T18:56:25.770Z,11.17
2022-11-01T18:58:54.571Z,11.08
2022-11-01T19:01:32.509Z,11.07
2022-11-01T19:04:07.842Z,11.04
2022-11-01T19:06:36.062Z,10.97
2022-11-01T19:09:17.755Z,10.96
2022-11-01T19:11:47.038Z,10.89
2022-11-01T19:14:23.205Z,10.92
2022-11-01T19:16:51.940Z,10.89
2022-11-01T19:19:21.668Z,10.85
2022-11-01T19:21:49.969Z,10.87
2022-11-01T19:24:31.334Z,10.84
2022-11-01T19:27:02.445Z,10.85
2022-11-01T19:29:35.212Z,10.87
2022-11-01T19:32:05.370Z,10.86
2022-11-01T19:34:37.239Z,10.82
2022-11-01T19:37:17.148Z,10.77
2022-11-01T19:39:45.805Z,10.76
2022-11-01T19:42:25.192Z,10.73
2022-11-01T19:44:57.714Z,10.67
2022-11-01T19:47:39.873Z,10.61
2022-11-01T19:50:22.050Z,10.61
2022-11-01T19:52:52.288Z,10.57
2022-11-01T19:55:37.147Z,10.56
2022-11-01T19:58:25.104Z,10.52
2022-11-01T20:01:03.364Z,10.55
2022-11-01T20:03:39.486Z,10.54
2022-11-01T20:06:15.951Z,10.54
2022-11-01T20:08:45.312Z,10.47
2022-11-01T20:11:13.783Z,10.42
2022-11-01T20:13:43.472Z,10.42
2022-11-01T20:16:12.228Z,10.37
2022-11-01T20:18:41.350Z,10.34
2022-11-01T20:21:10.248Z,10.31
2022-11-01T20:23:39.075Z,10.27
2022-11-01T20:26:07.650Z,10.20
2022-11-01T20:28:37.895Z,10.21
2022-11-01T20:31:07.737Z,10.18
2022-11-01T20:33:36.043Z,10.18
2022-11-01T20:36:10.802Z,10.16
2022-11-01T20:38:39.913Z,10.13
2022-11-01T20:41:09.325Z,10.13
2022-11-01T20:43:38.083Z,10.10
2022-11-01T20:46:08.072Z,10.12
2022-11-01T20:48:36.308Z,10.10
2022-11-01T20:51:04.552Z,10.10
2022-11-01T20:53:33.213Z,10.05
2022-11-01T20:56:01.857Z,10.03
2022-11-01T20:58:30.637Z,10.01
2022-11-01T21:00:58.949Z,9.99
2022-11-01T21:03:29.213Z,9.99
2022-11-01T21:05:57.345Z,9.95
2022-11-01T21:08:28.170Z,9.94
2022-11-01T21:10:58.875Z,9.87
2022-11-01T21:13:30.544Z,9.84
2022-11-01T21:16:00.824Z,9.85
2022-11-01T21:18:34.395Z,9.87
2022-11-01T21:21:31.723Z,9.91
2022-11-01T21:24:02.474Z,9.89
2022-11-01T21:26:33.046Z,9.93
2022-11-01T21:29:06.645Z,9.94
2022-11-01T21:31:35.905Z,9.94
2022-11-01T21:34:30.998Z,9.89
2022-11-01T21:37:01.049Z,9.84
2022-11-01T21:39:33.427Z,9.81
2022-11-01T21:42:05.464Z,9.79
2022-11-01T21:44:40.217Z,9.79
2022-11-01T21:47:19.264Z,9.78
2022-11-01T21:49:48.895Z,9.81
2022-11-01T21:52:19.426Z,9.81
2022-11-01T21:54:48.529Z,9.79
2022-11-01T21:57:17.954Z,9.78
2022-11-01T21:59:46.286Z,9.77
2022-11-01T22:02:15.843Z,9.76
2022-11-01T22:04:46.299Z,9.74
2022-11-01T22:07:15.827Z,9.75
2022-11-01T22:09:44.057Z,9.76
2022-11-01T22:12:12.256Z,9.73
2022-11-01T22:14:40.454Z,9.70
2022-11-01T22:17:08.792Z,9.69
2022-11-01T22:19:37.001Z,9.68
2022-11-01T22:22:05.161Z,9.66
2022-11-01T22:24:34.751Z,9.63
2022-11-01T22:27:05.217Z,9.63
2022-11-01T22:29:33.381Z,9.63
2022-11-01T22:32:01.681Z,9.64
2022-11-01T22:34:29.951Z,9.65
2022-11-01T22:36:58.258Z,9.64
2022-11-01T22:39:28.851Z,9.62
2022-11-01T22:41:58.407Z,9.61
2022-11-01T22:44:28.533Z,9.58
2022-11-01T22:46:59.648Z,9.55
2022-11-01T22:49:30.248Z,9.54
2022-11-01T22:52:03.597Z,9.56
2022-11-01T22:54:40.168Z,9.54
2022-11-01T22:57:16.848Z,9.51
2022-11-01T22:59:47.716Z,9.51
2022-11-01T23:02:34.897Z,9.46
2022-11-01T23:05:25.632Z,9.43
2022-11-01T23:07:55.299Z,9.45
2022-11-01T23:10:31.972Z,9.45
2022-11-01T23:13:25.866Z,9.41
2022-11-01T23:16:02.914Z,9.36
2022-11-01T23:18:33.226Z,9.34
2022-11-01T23:21:03.355Z,9.34
2022-11-01T23:23:31.647Z,9.32
2022-11-01T23:26:02.772Z,9.32
2022-11-01T23:28:35.129Z,9.32
2022-11-01T23:31:04.802Z,9.30
2022-11-01T23:33:37.643Z,9.26
2022-11-01T23:36:06.473Z,9.24
2022-11-01T23:38:37.324Z,9.22
2022-11-01T23:41:05.898Z,9.23
2022-11-01T23:43:39.035Z,9.19
2022-11-01T23:46:07.790Z,9.20
2022-11-01T23:48:41.593Z,9.19
2022-11-01T23:51:16.269Z,9.17
2022-11-01T23:53:46.423Z,9.16
2022-11-01T23:56:19.664Z,9.16
2022-11-01T23:58:54.948Z,9.17
